createdAt,value
2019-03-01T00:01:56.295Z,26.20
2019-03-01T00:04:47.576Z,29.02
2019-03-01T00:08:09.473Z,27.50
2019-03-01T00:10:43.487Z,25.70
2019-03-01T00:13:52.018Z,25.32
2019-03-01T00:16:47.976Z,24.37
2019-03-01T00:19:52.250Z,26.20
2019-03-01T00:22:31.435Z,26.67
2019-03-01T00:25:32.033Z,25.15
2019-03-01T00:28:12.172Z,26.50
2019-03-01T00:31:10.226Z,26.93
2019-03-01T00:34:12.932Z,26.00
2019-03-01T00:36:55.865Z,28.35
2019-03-01T00:40:01.670Z,28.02
2019-03-01T00:42:54.934Z,27.35
2019-03-01T00:45:24.319Z,27.90
2019-03-01T00:47:53.700Z,26.68
2019-03-01T00:50:23.086Z,28.57
2019-03-01T00:52:52.886Z,28.23
2019-03-01T00:55:22.319Z,28.33
2019-03-01T00:57:51.700Z,27.25
2019-03-01T01:00:34.508Z,26.77
2019-03-01T01:03:03.947Z,27.48
2019-03-01T01:05:33.329Z,26.68
2019-03-01T01:08:03.240Z,25.72
2019-03-01T01:10:32.907Z,26.73
2019-03-01T01:13:02.286Z,26.48
2019-03-01T01:15:31.709Z,25.55
2019-03-01T01:18:01.055Z,24.65
2019-03-01T01:20:31.972Z,24.55
2019-03-01T01:23:01.394Z,25.55
2019-03-01T01:25:32.103Z,24.40
2019-03-01T01:28:01.471Z,22.93
2019-03-01T01:30:31.249Z,24.18
2019-03-01T01:33:00.626Z,24.52
2019-03-01T01:35:31.254Z,24.25
2019-03-01T01:38:00.694Z,23.77
2019-03-01T01:40:30.346Z,30.92
2019-03-01T01:42:59.723Z,30.20
2019-03-01T01:45:29.464Z,26.93
2019-03-01T01:47:58.832Z,33.85
2019-03-01T01:50:28.235Z,30.60
2019-03-01T01:52:57.670Z,34.85
2019-03-01T01:55:27.378Z,33.87
2019-03-01T01:57:56.751Z,32.53
2019-03-01T02:00:26.139Z,33.07
2019-03-01T02:02:55.532Z,33.65
2019-03-01T02:05:24.921Z,32.13
2019-03-01T02:07:54.303Z,34.70
2019-03-01T02:10:23.696Z,36.70
2019-03-01T02:12:53.069Z,35.85
2019-03-01T02:15:23.058Z,35.40
2019-03-01T02:17:52.448Z,35.78
2019-03-01T02:20:21.825Z,35.63
2019-03-01T02:22:51.202Z,34.45
2019-03-01T02:25:20.574Z,34.97
2019-03-01T02:27:50.967Z,34.60
2019-03-01T02:30:28.078Z,35.93
2019-03-01T02:32:57.471Z,34.33
2019-03-01T02:35:26.866Z,34.47
2019-03-01T02:37:56.261Z,33.63
2019-03-01T02:40:25.636Z,35.47
2019-03-01T02:42:55.061Z,34.20
2019-03-01T02:45:24.438Z,35.27
2019-03-01T02:47:54.054Z,33.20
2019-03-01T02:50:23.434Z,34.87
2019-03-01T02:52:53.023Z,32.73
2019-03-01T02:55:22.956Z,30.10
2019-03-01T02:57:52.698Z,30.60
2019-03-01T03:00:30.667Z,32.77
2019-03-01T03:03:00.037Z,32.35
2019-03-01T03:05:29.411Z,32.48
2019-03-01T03:08:00.508Z,30.68
2019-03-01T03:10:29.934Z,31.73
2019-03-01T03:13:02.816Z,28.80
2019-03-01T03:15:33.886Z,30.20
2019-03-01T03:18:03.256Z,30.27
2019-03-01T03:20:32.653Z,30.43
2019-03-01T03:23:02.422Z,29.00
2019-03-01T03:25:31.795Z,29.48
2019-03-01T03:28:01.179Z,30.32
2019-03-01T03:30:31.746Z,30.08
2019-03-01T03:33:01.098Z,29.48
2019-03-01T03:35:30.475Z,30.08
2019-03-01T03:37:59.855Z,30.20
2019-03-01T03:40:29.236Z,29.07
2019-03-01T03:42:58.614Z,29.90
2019-03-01T03:45:28.045Z,30.37
2019-03-01T03:47:57.422Z,30.60
2019-03-01T03:50:26.833Z,30.17
2019-03-01T03:52:56.189Z,31.60
2019-03-01T03:55:25.560Z,30.90
2019-03-01T03:57:54.942Z,30.82
2019-03-01T04:00:26.066Z,31.77
2019-03-01T04:02:55.467Z,31.37
2019-03-01T04:05:24.852Z,31.40
2019-03-01T04:07:54.778Z,31.82
2019-03-01T04:10:24.147Z,31.47
2019-03-01T04:12:53.561Z,31.95
2019-03-01T04:15:22.951Z,31.60
2019-03-01T04:17:52.339Z,31.80
2019-03-01T04:20:21.714Z,31.40
2019-03-01T04:22:51.098Z,31.85
2019-03-01T04:25:20.486Z,31.87
2019-03-01T04:27:49.862Z,33.13
2019-03-01T04:30:20.118Z,32.03
2019-03-01T04:32:50.513Z,31.87
2019-03-01T04:35:19.905Z,32.93
2019-03-01T04:37:49.278Z,30.77
2019-03-01T04:40:18.658Z,31.07
2019-03-01T04:42:48.038Z,32.78
2019-03-01T04:45:18.946Z,31.62
2019-03-01T04:47:48.317Z,30.90
2019-03-01T04:50:17.686Z,32.17
2019-03-01T04:52:47.419Z,31.93
2019-03-01T04:55:23.429Z,32.27
2019-03-01T04:57:52.803Z,29.57
2019-03-01T05:00:26.256Z,30.23
2019-03-01T05:02:55.642Z,29.95
2019-03-01T05:05:25.017Z,30.00
2019-03-01T05:07:54.463Z,30.20
2019-03-01T05:10:23.844Z,28.00
2019-03-01T05:12:53.223Z,28.25
2019-03-01T05:15:26.278Z,28.67
2019-03-01T05:17:55.666Z,28.85
2019-03-01T05:20:25.043Z,28.53
2019-03-01T05:22:56.259Z,28.15
2019-03-01T05:25:25.646Z,30.07
2019-03-01T05:27:54.996Z,27.20
2019-03-01T05:30:25.021Z,28.53
2019-03-01T05:32:54.460Z,25.12
2019-03-01T05:35:24.660Z,28.07
2019-03-01T05:37:54.067Z,27.05
2019-03-01T05:40:23.446Z,29.17
2019-03-01T05:42:52.828Z,29.87
2019-03-01T05:45:27.800Z,31.27
2019-03-01T05:47:57.198Z,31.10
2019-03-01T05:50:26.581Z,31.33
2019-03-01T05:52:55.984Z,31.05
2019-03-01T05:55:25.384Z,34.47
2019-03-01T05:58:30.289Z,31.87
2019-03-01T06:03:59.761Z,33.23
2019-03-01T06:06:42.233Z,34.70
2019-03-01T06:09:40.174Z,33.65
2019-03-01T06:12:42.820Z,32.88
2019-03-01T06:15:40.700Z,33.88
2019-03-01T06:18:32.302Z,34.20
2019-03-01T06:21:30.906Z,33.70
2019-03-01T06:24:23.944Z,33.85
2019-03-01T06:27:26.944Z,33.53
2019-03-01T06:30:09.288Z,33.80
2019-03-01T06:33:17.997Z,35.30
2019-03-01T06:36:10.127Z,33.60
2019-03-01T06:39:14.243Z,33.08
2019-03-01T06:42:04.100Z,32.88
2019-03-01T06:44:58.636Z,33.63
2019-03-01T06:47:44.823Z,32.00
2019-03-01T06:50:19.185Z,45.23
2019-03-01T06:52:48.620Z,32.58
2019-03-01T06:55:37.286Z,31.83
2019-03-01T06:58:13.237Z,34.05
2019-03-01T07:00:50.435Z,36.30
2019-03-01T07:03:18.526Z,39.15
2019-03-01T07:05:47.900Z,39.33
2019-03-01T07:08:17.283Z,37.35
2019-03-01T07:10:46.677Z,40.45
2019-03-01T07:13:16.077Z,40.98
2019-03-01T07:15:45.491Z,41.13
2019-03-01T07:18:15.181Z,43.38
2019-03-01T07:20:44.578Z,45.98
2019-03-01T07:23:13.953Z,45.67
2019-03-01T07:25:43.332Z,43.95
2019-03-01T07:28:12.712Z,41.42
2019-03-01T07:30:42.152Z,35.10
2019-03-01T07:33:11.524Z,36.45
2019-03-01T07:35:40.907Z,35.80
2019-03-01T07:38:10.562Z,35.35
2019-03-01T07:40:39.941Z,36.08
2019-03-01T07:43:09.323Z,35.85
2019-03-01T07:45:38.713Z,38.05
2019-03-01T07:48:08.094Z,38.58
2019-03-01T07:50:37.479Z,35.92
2019-03-01T07:53:06.869Z,39.35
2019-03-01T07:55:36.249Z,37.25
2019-03-01T07:58:05.663Z,38.78
2019-03-01T08:00:35.879Z,36.93
2019-03-01T08:03:05.243Z,36.35
2019-03-01T08:05:35.505Z,35.38
2019-03-01T08:08:05.720Z,35.35
2019-03-01T08:10:35.098Z,34.18
2019-03-01T08:13:04.546Z,32.95
2019-03-01T08:15:33.963Z,33.30
2019-03-01T08:18:04.694Z,34.48
2019-03-01T08:20:34.839Z,33.45
2019-03-01T08:23:04.731Z,35.17
2019-03-01T08:25:34.139Z,33.40
2019-03-01T08:28:03.501Z,33.58
2019-03-01T08:30:32.889Z,35.92
2019-03-01T08:33:02.589Z,33.98
2019-03-01T08:35:33.366Z,34.90
2019-03-01T08:38:02.771Z,40.17
2019-03-01T08:40:32.356Z,41.48
2019-03-01T08:43:02.065Z,40.70
2019-03-01T08:45:32.830Z,40.52
2019-03-01T08:48:02.568Z,39.70
2019-03-01T08:50:31.927Z,40.98
2019-03-01T08:53:01.325Z,39.80
2019-03-01T08:55:31.925Z,40.10
2019-03-01T08:58:04.659Z,38.88
2019-03-01T09:00:44.874Z,42.27
2019-03-01T09:03:41.594Z,39.20
2019-03-01T09:06:10.823Z,37.35
2019-03-01T09:08:43.007Z,39.20
2019-03-01T09:11:11.292Z,41.63
2019-03-01T09:13:40.684Z,40.25
2019-03-01T09:16:10.074Z,40.78
2019-03-01T09:18:39.453Z,41.23
2019-03-01T09:21:12.390Z,41.88
2019-03-01T09:23:40.260Z,39.70
2019-03-01T09:26:09.641Z,39.50
2019-03-01T09:28:39.870Z,40.28
2019-03-01T09:31:09.279Z,38.70
2019-03-01T09:33:38.660Z,40.55
2019-03-01T09:36:09.700Z,39.65
2019-03-01T09:38:39.444Z,39.60
2019-03-01T09:41:10.206Z,37.73
2019-03-01T09:43:40.596Z,40.83
2019-03-01T09:46:10.904Z,38.65
2019-03-01T09:48:40.278Z,38.60
2019-03-01T09:51:10.780Z,39.27
2019-03-01T09:53:40.823Z,40.20
2019-03-01T09:56:12.996Z,41.05
2019-03-01T09:58:41.628Z,39.23
2019-03-01T10:01:18.121Z,40.85
2019-03-01T10:03:47.832Z,39.30
2019-03-01T10:06:17.208Z,38.13
2019-03-01T10:08:46.588Z,42.17
2019-03-01T10:11:15.963Z,41.00
2019-03-01T10:13:45.620Z,38.98
2019-03-01T10:16:15.037Z,38.83
2019-03-01T10:18:44.405Z,39.60
2019-03-01T10:21:13.812Z,40.33
2019-03-01T10:23:43.246Z,41.08
2019-03-01T10:26:12.651Z,42.53
2019-03-01T10:28:42.015Z,41.10
2019-03-01T10:31:11.403Z,41.15
2019-03-01T10:33:41.127Z,41.45
2019-03-01T10:36:10.891Z,41.48
2019-03-01T10:38:40.254Z,43.00
2019-03-01T10:41:09.665Z,42.03
2019-03-01T10:43:39.085Z,41.02
2019-03-01T10:46:08.813Z,42.05
2019-03-01T10:48:38.183Z,42.20
2019-03-01T10:51:07.600Z,42.70
2019-03-01T10:53:36.966Z,40.38
2019-03-01T10:56:06.369Z,42.75
2019-03-01T10:58:36.024Z,43.70
2019-03-01T11:01:06.271Z,39.58
2019-03-01T11:03:35.633Z,42.73
2019-03-01T11:06:05.105Z,43.85
2019-03-01T11:08:34.465Z,42.10
2019-03-01T11:11:03.934Z,47.45
2019-03-01T11:13:33.300Z,45.88
2019-03-01T11:16:02.695Z,45.33
2019-03-01T11:18:32.068Z,42.55
2019-03-01T11:21:01.985Z,42.65
2019-03-01T11:23:31.454Z,45.00
2019-03-01T11:26:00.897Z,46.33
2019-03-01T11:28:30.259Z,42.10
2019-03-01T11:30:59.655Z,45.95
2019-03-01T11:33:29.009Z,42.95
2019-03-01T11:35:58.429Z,46.50
2019-03-01T11:38:27.815Z,45.50
2019-03-01T11:40:57.287Z,45.80
2019-03-01T11:43:27.314Z,43.70
2019-03-01T11:45:56.720Z,44.05
2019-03-01T11:48:26.332Z,41.98
2019-03-01T11:50:55.771Z,42.55
2019-03-01T11:53:25.112Z,41.10
2019-03-01T11:55:54.513Z,42.15
2019-03-01T11:58:24.215Z,41.42
2019-03-01T12:00:53.588Z,39.75
2019-03-01T12:03:22.965Z,40.60
2019-03-01T12:05:52.554Z,37.70
2019-03-01T12:08:21.925Z,38.25
2019-03-01T12:10:51.322Z,38.98
2019-03-01T12:13:20.691Z,39.05
2019-03-01T12:15:50.069Z,32.55
2019-03-01T12:18:19.449Z,37.42
2019-03-01T12:20:48.855Z,37.73
2019-03-01T12:23:18.225Z,34.25
2019-03-01T12:25:47.601Z,34.70
2019-03-01T12:28:17.394Z,32.85
2019-03-01T12:30:46.769Z,34.78
2019-03-01T12:33:16.153Z,34.00
2019-03-01T12:35:46.386Z,32.10
2019-03-01T12:38:15.775Z,34.55
2019-03-01T12:40:45.154Z,33.40
2019-03-01T12:43:14.534Z,33.70
2019-03-01T12:45:43.919Z,33.30
2019-03-01T12:48:13.310Z,33.28
2019-03-01T12:50:43.451Z,32.25
2019-03-01T12:53:12.817Z,31.90
2019-03-01T12:55:42.193Z,32.53
2019-03-01T12:58:19.159Z,31.80
2019-03-01T13:00:42.682Z,29.07
2019-03-01T13:03:12.069Z,26.93
2019-03-01T13:05:41.447Z,28.10
2019-03-01T13:08:12.575Z,25.50
2019-03-01T13:10:41.931Z,27.32
2019-03-01T13:13:11.553Z,26.45
2019-03-01T13:15:40.979Z,20.45
2019-03-01T13:18:15.754Z,18.12
2019-03-01T13:20:41.409Z,19.45
2019-03-01T13:23:10.787Z,18.60
2019-03-01T13:25:40.166Z,18.20
2019-03-01T13:28:09.551Z,19.25
2019-03-01T13:30:38.935Z,19.42
2019-03-01T13:33:08.328Z,18.32
2019-03-01T13:35:37.750Z,18.70
2019-03-01T13:38:07.108Z,18.48
2019-03-01T13:40:36.489Z,16.57
2019-03-01T13:43:05.875Z,15.45
2019-03-01T13:45:35.248Z,13.15
2019-03-01T13:48:04.665Z,12.90
2019-03-01T13:50:34.307Z,13.90
2019-03-01T13:53:04.137Z,13.98
2019-03-01T13:55:33.509Z,12.85
2019-03-01T13:58:03.289Z,13.08
2019-03-01T14:00:32.659Z,11.48
2019-03-01T14:03:02.037Z,13.05
2019-03-01T14:05:31.436Z,12.43
2019-03-01T14:08:08.592Z,13.70
2019-03-01T14:10:31.912Z,13.35
2019-03-01T14:13:01.304Z,12.88
2019-03-01T14:15:31.001Z,12.18
2019-03-01T14:18:01.164Z,12.37
2019-03-01T14:20:31.785Z,11.88
2019-03-01T14:23:01.152Z,11.63
2019-03-01T14:25:30.523Z,11.95
2019-03-01T14:28:02.096Z,12.68
2019-03-01T14:30:33.276Z,11.73
2019-03-01T14:33:02.138Z,11.55
2019-03-01T14:35:31.515Z,10.93
2019-03-01T14:38:00.892Z,10.95
2019-03-01T14:40:30.279Z,11.97
2019-03-01T14:43:00.195Z,10.93
2019-03-01T14:45:34.898Z,11.05
2019-03-01T14:48:05.038Z,10.88
2019-03-01T14:50:35.399Z,10.70
2019-03-01T14:53:04.761Z,11.45
2019-03-01T14:55:39.386Z,10.88
2019-03-01T14:58:25.410Z,10.43
2019-03-01T15:01:11.096Z,11.25
2019-03-01T15:03:40.704Z,11.33
2019-03-01T15:06:10.164Z,10.00
2019-03-01T15:08:40.438Z,10.82
2019-03-01T15:11:14.254Z,9.93
2019-03-01T15:13:44.459Z,9.23
2019-03-01T15:16:13.831Z,8.93
2019-03-01T15:18:44.164Z,8.05
2019-03-01T15:21:14.860Z,8.10
2019-03-01T15:23:45.093Z,7.58
2019-03-01T15:26:14.474Z,6.60
2019-03-01T15:28:53.627Z,7.92
2019-03-01T15:31:21.814Z,7.85
2019-03-01T15:33:51.260Z,8.33
2019-03-01T15:36:20.648Z,6.80
2019-03-01T15:38:50.361Z,7.45
2019-03-01T15:41:19.760Z,7.55
2019-03-01T15:43:49.110Z,7.75
2019-03-01T15:46:18.505Z,6.60
2019-03-01T15:48:47.933Z,6.75
2019-03-01T15:51:17.282Z,7.20
2019-03-01T15:53:46.654Z,5.85
2019-03-01T15:56:16.385Z,6.58
2019-03-01T15:58:46.677Z,6.62
2019-03-01T16:01:16.658Z,6.62
2019-03-01T16:03:46.102Z,6.25
2019-03-01T16:06:20.065Z,6.35
2019-03-01T16:08:47.974Z,6.30
2019-03-01T16:11:17.702Z,6.27
2019-03-01T16:13:49.024Z,6.78
2019-03-01T16:16:18.683Z,5.75
2019-03-01T16:18:48.045Z,6.37
2019-03-01T16:21:17.414Z,6.70
2019-03-01T16:23:46.810Z,6.45
2019-03-01T16:26:16.179Z,6.60
2019-03-01T16:28:45.539Z,6.08
2019-03-01T16:31:14.911Z,5.90
2019-03-01T16:33:44.268Z,5.95
2019-03-01T16:36:15.275Z,6.83
2019-03-01T16:38:48.640Z,7.50
2019-03-01T16:41:16.222Z,6.62
2019-03-01T16:43:45.603Z,6.90
2019-03-01T16:46:15.004Z,6.58
2019-03-01T16:48:44.361Z,6.58
2019-03-01T16:51:15.487Z,6.03
2019-03-01T16:53:44.836Z,5.80
2019-03-01T16:56:16.814Z,5.80
2019-03-01T16:58:46.571Z,6.25
2019-03-01T17:01:16.310Z,12.68
2019-03-01T17:03:45.672Z,6.17
2019-03-01T17:06:15.039Z,5.25
2019-03-01T17:08:44.420Z,5.35
2019-03-01T17:11:14.055Z,5.40
2019-03-01T17:13:43.421Z,5.75
2019-03-01T17:16:12.793Z,5.72
2019-03-01T17:18:44.673Z,5.30
2019-03-01T17:21:15.878Z,5.03
2019-03-01T17:23:44.739Z,6.10
2019-03-01T17:26:14.102Z,5.67
2019-03-01T17:28:43.459Z,6.50
2019-03-01T17:31:12.863Z,6.87
2019-03-01T17:33:45.172Z,6.58
2019-03-01T17:36:16.732Z,7.62
2019-03-01T17:38:46.080Z,6.40
2019-03-01T17:41:15.587Z,7.05
2019-03-01T17:43:44.963Z,7.40
2019-03-01T17:46:14.397Z,7.37
2019-03-01T17:48:43.774Z,8.15
2019-03-01T17:51:13.148Z,7.55
2019-03-01T17:53:43.068Z,7.72
2019-03-01T17:56:13.941Z,7.53
2019-03-01T17:58:43.315Z,7.00
2019-03-01T18:01:12.887Z,6.95
2019-03-01T18:03:42.255Z,7.83
2019-03-01T18:06:12.949Z,7.47
2019-03-01T18:08:42.789Z,7.78
2019-03-01T18:11:12.179Z,7.67
2019-03-01T18:13:41.552Z,8.70
2019-03-01T18:16:10.942Z,7.33
2019-03-01T18:18:42.478Z,7.60
2019-03-01T18:21:13.157Z,7.45
2019-03-01T18:23:42.764Z,7.55
2019-03-01T18:26:12.144Z,7.17
2019-03-01T18:28:41.504Z,7.42
2019-03-01T18:31:10.913Z,7.10
2019-03-01T18:33:40.280Z,6.80
2019-03-01T18:36:09.978Z,7.03
2019-03-01T18:38:39.372Z,5.72
2019-03-01T18:41:08.734Z,6.00
2019-03-01T18:43:38.105Z,5.25
2019-03-01T18:46:07.488Z,5.92
2019-03-01T18:48:36.851Z,5.78
2019-03-01T18:51:07.043Z,6.33
2019-03-01T18:53:37.501Z,6.05
2019-03-01T18:56:06.868Z,6.33
2019-03-01T18:58:36.241Z,5.95
2019-03-01T19:01:07.762Z,6.25
2019-03-01T19:03:40.308Z,6.40
2019-03-01T19:06:12.833Z,5.97
2019-03-01T19:08:42.703Z,5.55
2019-03-01T19:11:12.233Z,5.53
2019-03-01T19:13:41.598Z,5.45
2019-03-01T19:16:11.213Z,5.33
2019-03-01T19:18:42.202Z,5.42
2019-03-01T19:21:13.932Z,5.72
2019-03-01T19:23:43.023Z,5.78
2019-03-01T19:26:12.387Z,5.87
2019-03-01T19:28:42.073Z,5.78
2019-03-01T19:31:11.450Z,5.40
2019-03-01T19:33:41.707Z,5.90
2019-03-01T19:36:11.263Z,5.05
2019-03-01T19:38:40.643Z,5.87
2019-03-01T19:41:10.006Z,5.05
2019-03-01T19:43:41.594Z,5.00
2019-03-01T19:46:12.589Z,4.83
2019-03-01T19:48:41.900Z,4.72
2019-03-01T19:51:11.265Z,5.40
2019-03-01T19:53:40.639Z,4.67
2019-03-01T19:56:10.022Z,4.95
2019-03-01T19:58:39.375Z,4.60
2019-03-01T20:01:08.781Z,4.90
2019-03-01T20:03:38.128Z,5.00
2019-03-01T20:06:08.834Z,5.05
2019-03-01T20:08:38.196Z,4.95
2019-03-01T20:11:07.565Z,5.22
2019-03-01T20:13:36.933Z,5.25
2019-03-01T20:16:06.376Z,4.87
2019-03-01T20:18:35.740Z,5.00
2019-03-01T20:21:05.937Z,5.03
2019-03-01T20:23:36.222Z,4.92
2019-03-01T20:26:05.580Z,4.87
2019-03-01T20:28:34.946Z,4.97
2019-03-01T20:31:04.883Z,4.35
2019-03-01T20:33:35.138Z,4.72
2019-03-01T20:36:04.510Z,4.58
2019-03-01T20:38:37.110Z,4.35
2019-03-01T20:41:04.995Z,4.85
2019-03-01T20:43:34.360Z,4.78
2019-03-01T20:46:07.001Z,4.87
2019-03-01T20:48:34.816Z,5.50
2019-03-01T20:51:06.117Z,4.70
2019-03-01T20:53:35.644Z,4.80
2019-03-01T20:56:05.011Z,5.08
2019-03-01T20:58:35.858Z,5.20
2019-03-01T21:01:05.741Z,5.25
2019-03-01T21:03:35.112Z,5.17
2019-03-01T21:06:05.451Z,5.10
2019-03-01T21:08:35.419Z,5.45
2019-03-01T21:11:04.870Z,4.92
2019-03-01T21:13:34.243Z,5.42
2019-03-01T21:16:03.679Z,5.05
2019-03-01T21:18:34.179Z,5.05
2019-03-01T21:21:04.199Z,5.10
2019-03-01T21:23:33.586Z,5.05
2019-03-01T21:26:03.277Z,5.15
2019-03-01T21:28:33.742Z,5.12
2019-03-01T21:31:04.382Z,4.78
2019-03-01T21:33:33.744Z,5.62
2019-03-01T21:36:03.115Z,5.15
2019-03-01T21:38:32.504Z,5.10
2019-03-01T21:41:01.874Z,4.62
2019-03-01T21:43:33.628Z,5.47
2019-03-01T21:46:02.368Z,4.05
2019-03-01T21:48:31.999Z,5.15
2019-03-01T21:51:01.363Z,4.80
2019-03-01T21:53:30.754Z,4.40
2019-03-01T21:56:00.548Z,4.62
2019-03-01T21:58:31.234Z,4.62
2019-03-01T22:01:02.714Z,4.00
2019-03-01T22:03:31.699Z,4.78
2019-03-01T22:06:01.056Z,4.62
2019-03-01T22:08:31.170Z,4.78
2019-03-01T22:11:01.604Z,5.12
2019-03-01T22:13:32.495Z,4.60
2019-03-01T22:16:02.465Z,4.97
2019-03-01T22:18:31.807Z,4.70
2019-03-01T22:21:01.169Z,4.50
2019-03-01T22:23:30.908Z,4.72
2019-03-01T22:26:00.341Z,4.85
2019-03-01T22:28:32.758Z,5.37
2019-03-01T22:31:01.453Z,4.67
2019-03-01T22:33:30.956Z,4.30
2019-03-01T22:36:00.334Z,4.53
2019-03-01T22:38:30.109Z,4.83
2019-03-01T22:41:00.630Z,4.35
2019-03-01T22:43:31.196Z,4.70
2019-03-01T22:46:00.569Z,4.75
2019-03-01T22:48:30.002Z,4.28
2019-03-01T22:50:59.308Z,4.30
2019-03-01T22:53:28.685Z,4.67
2019-03-01T22:55:58.090Z,4.60
2019-03-01T22:58:27.451Z,5.25
2019-03-01T23:01:04.442Z,4.95
2019-03-01T23:03:33.803Z,4.67
2019-03-01T23:06:03.174Z,4.80
2019-03-01T23:08:35.579Z,5.83
2019-03-01T23:11:03.634Z,5.22
2019-03-01T23:13:33.913Z,5.00
2019-03-01T23:16:03.294Z,4.85
2019-03-01T23:18:32.668Z,6.00
2019-03-01T23:21:02.084Z,5.05
2019-03-01T23:23:31.513Z,5.45
2019-03-01T23:26:00.887Z,5.08
2019-03-01T23:28:30.246Z,5.22
2019-03-01T23:31:00.588Z,4.72
2019-03-01T23:33:31.623Z,5.87
2019-03-01T23:36:01.842Z,5.10
2019-03-01T23:38:31.212Z,4.58
2019-03-01T23:41:00.574Z,4.87
2019-03-01T23:43:30.911Z,5.17
2019-03-01T23:46:01.569Z,5.33
2019-03-01T23:48:31.189Z,5.95
2019-03-01T23:51:00.553Z,5.85
2019-03-01T23:53:31.002Z,6.70
2019-03-01T23:56:01.023Z,5.72
2019-03-01T23:58:30.395Z,5.03
